Sarah Schulte — 5BPA3 — position and weather

sailwx.info

Track history (hours):
 
Tides and Currents Weather Stations Pressure Air Temp Water Temp Dewpoint Dewpoint Depression Visibility Wind Speed Wind Dir Waves Ship Positions

Sarah Schulte

Last reported at 2017-Jul-14 16:56 UTC. Time now 2017-Jul-26 10:27 UTC.
Position N 31°46' E 124°38'.
Warning: this ship's position is 11 days out of date.

Length 222 m; draft 9 m.

Type: Ship. MMSI: 210409000.

Date/timePositionNaut miles runAvg speedWind from/ knotsBaromVisibWave heightAir tempDewpointWater temp
2017-Jul-14 16:56N 31°46' E 124°38'611.1
2017-Jul-14 16:23N 31°44' E 124°31'510.6
2017-Jul-14 15:57N 31°42' E 124°27'510.3
2017-Jul-14 15:29N 31°40' E 124°21'510.2
2017-Jul-14 14:59N 31°38' E 124°16'510.3
2017-Jul-14 14:29N 31°36' E 124°10'2510.9
2017-Jul-14 12:11N 31°27' E 123°43'211.1
2017-Jul-14 12:00N 31°26' E 123°41'611.0
2017-Jul-14 11:27N 31°24' E 123°34'511.6
2017-Jul-14 11:00N 31°22' E 123°28'711.9
2017-Jul-14 10:27N 31°20' E 123°21'611.8
2017-Jul-14 09:58N 31°17' E 123°15'612.0
2017-Jul-14 09:30N 31°15' E 123°09'611.9
2017-Jul-14 09:00N 31°13' E 123°03'611.9
2017-Jul-14 08:30N 31°11' E 122°56'612.0
2017-Jul-14 08:00N 31°09' E 122°50'612.3
2017-Jul-14 07:30N 31°07' E 122°43'611.6
2017-Jul-14 06:57N 31°06' E 122°35'511.2
2017-Jul-14 06:30N 31°06' E 122°29'511.2
2017-Jul-14 06:00N 31°05' E 122°23'713.3
2017-Jul-14 05:30N 31°08' E 122°16'612.4
2017-Jul-14 05:00N 31°11' E 122°10'5 9.3
2017-Jul-14 04:30N 31°14' E 122°05'5 9.3
2017-Jul-14 04:00N 31°15' E 121°60'713.9
2017-Jul-14 03:30N 31°16' E 121°52'713.6
2017-Jul-14 03:00N 31°19' E 121°45'5 9.8
2017-Jul-14 02:30N 31°20' E 121°39'0 0.2
2017-Jul-14 01:58N 31°20' E 121°39'0 0.0
2017-Jul-14 01:28N 31°20' E 121°39'0 0.0
2017-Jul-14 00:59N 31°20' E 121°39'0 0.0
2017-Jul-14 00:29N 31°20' E 121°39'0 0.0
2017-Jul-13 23:56N 31°20' E 121°39'0 0.0
2017-Jul-13 23:26N 31°20' E 121°39'0 0.0
2017-Jul-13 22:53N 31°20' E 121°39'0 0.0
2017-Jul-13 22:29N 31°20' E 121°39'0 0.0
2017-Jul-13 21:50N 31°20' E 121°39'0 0.0
2017-Jul-13 21:29N 31°20' E 121°39'0 1.0
2017-Jul-13 21:00N 31°20' E 121°40'1 1.5
2017-Jul-13 20:30N 31°20' E 121°41'4 8.3
2017-Jul-13 20:01N 31°19' E 121°45'612.1
2017-Jul-13 19:31N 31°16' E 121°52'612.5
2017-Jul-13 19:00N 31°15' E 121°59'612.2
2017-Jul-13 18:30N 31°14' E 122°06'713.3
2017-Jul-13 18:00N 31°10' E 122°12'713.5
2017-Jul-13 17:30N 31°06' E 122°19'611.8
2017-Jul-13 17:00N 31°07' E 122°26'4 8.6
2017-Jul-13 16:30N 31°07' E 122°31'611.1
2017-Jul-13 16:01N 31°06' E 122°37'3 5.9
2017-Jul-13 15:30N 31°04' E 122°40'0 0.1
2017-Jul-13 14:51N 31°04' E 122°40'0 0.1
2017-Jul-13 14:11N 31°04' E 122°40'0 0.2
2017-Jul-13 13:56N 31°04' E 122°40'0 0.0
2017-Jul-13 13:29N 31°04' E 122°40'0 0.1
2017-Jul-13 12:56N 31°04' E 122°40'0 0.0
2017-Jul-13 04:34N 31°04' E 122°40'0 0.9
2017-Jul-13 04:30N 31°04' E 122°40'3 5.3
2017-Jul-13 04:00N 31°05' E 122°43'1412.2
2017-Jul-13 02:50N 30°60' E 122°59'  
2017-Jul-10 22:22N 24°04' E 118°36'1014.0
2017-Jul-10 21:40N 23°58' E 118°27'214.1
2017-Jul-10 21:29N 23°57' E 118°25'  
Track history (hours):
 
Tides and Currents Weather Stations Pressure Air Temp Water Temp Dewpoint Dewpoint Depression Visibility Wind Speed Wind Dir Waves Ship Positions

Sarah Schulte

Last reported at 2017-Jul-14 16:56 UTC. Time now 2017-Jul-26 10:27 UTC.
Position N 31°46' E 124°38'.
Warning: this ship's position is 11 days out of date.

Length 222 m; draft 9 m.

Type: Ship. MMSI: 210409000.

Date/timePositionNaut miles runAvg speedWind from/ knotsBaromVisibWave heightAir tempDewpointWater temp
2017-Jul-14 16:56N 31°46' E 124°38'611.1
2017-Jul-14 16:23N 31°44' E 124°31'510.6
2017-Jul-14 15:57N 31°42' E 124°27'510.3
2017-Jul-14 15:29N 31°40' E 124°21'510.2
2017-Jul-14 14:59N 31°38' E 124°16'510.3
2017-Jul-14 14:29N 31°36' E 124°10'2510.9
2017-Jul-14 12:11N 31°27' E 123°43'211.1
2017-Jul-14 12:00N 31°26' E 123°41'611.0
2017-Jul-14 11:27N 31°24' E 123°34'511.6
2017-Jul-14 11:00N 31°22' E 123°28'711.9
2017-Jul-14 10:27N 31°20' E 123°21'611.8
2017-Jul-14 09:58N 31°17' E 123°15'612.0
2017-Jul-14 09:30N 31°15' E 123°09'611.9
2017-Jul-14 09:00N 31°13' E 123°03'611.9
2017-Jul-14 08:30N 31°11' E 122°56'612.0
2017-Jul-14 08:00N 31°09' E 122°50'612.3
2017-Jul-14 07:30N 31°07' E 122°43'611.6
2017-Jul-14 06:57N 31°06' E 122°35'511.2
2017-Jul-14 06:30N 31°06' E 122°29'511.2
2017-Jul-14 06:00N 31°05' E 122°23'713.3
2017-Jul-14 05:30N 31°08' E 122°16'612.4
2017-Jul-14 05:00N 31°11' E 122°10'5 9.3
2017-Jul-14 04:30N 31°14' E 122°05'5 9.3
2017-Jul-14 04:00N 31°15' E 121°60'713.9
2017-Jul-14 03:30N 31°16' E 121°52'713.6
2017-Jul-14 03:00N 31°19' E 121°45'5 9.8
2017-Jul-14 02:30N 31°20' E 121°39'0 0.2
2017-Jul-14 01:58N 31°20' E 121°39'0 0.0
2017-Jul-14 01:28N 31°20' E 121°39'0 0.0
2017-Jul-14 00:59N 31°20' E 121°39'0 0.0
2017-Jul-14 00:29N 31°20' E 121°39'0 0.0
2017-Jul-13 23:56N 31°20' E 121°39'0 0.0
2017-Jul-13 23:26N 31°20' E 121°39'0 0.0
2017-Jul-13 22:53N 31°20' E 121°39'0 0.0
2017-Jul-13 22:29N 31°20' E 121°39'0 0.0
2017-Jul-13 21:50N 31°20' E 121°39'0 0.0
2017-Jul-13 21:29N 31°20' E 121°39'0 1.0
2017-Jul-13 21:00N 31°20' E 121°40'1 1.5
2017-Jul-13 20:30N 31°20' E 121°41'4 8.3
2017-Jul-13 20:01N 31°19' E 121°45'612.1
2017-Jul-13 19:31N 31°16' E 121°52'612.5
2017-Jul-13 19:00N 31°15' E 121°59'612.2
2017-Jul-13 18:30N 31°14' E 122°06'713.3
2017-Jul-13 18:00N 31°10' E 122°12'713.5
2017-Jul-13 17:30N 31°06' E 122°19'611.8
2017-Jul-13 17:00N 31°07' E 122°26'4 8.6
2017-Jul-13 16:30N 31°07' E 122°31'611.1
2017-Jul-13 16:01N 31°06' E 122°37'3 5.9
2017-Jul-13 15:30N 31°04' E 122°40'0 0.1
2017-Jul-13 14:51N 31°04' E 122°40'0 0.1
2017-Jul-13 14:11N 31°04' E 122°40'0 0.2
2017-Jul-13 13:56N 31°04' E 122°40'0 0.0
2017-Jul-13 13:29N 31°04' E 122°40'0 0.1
2017-Jul-13 12:56N 31°04' E 122°40'0 0.0
2017-Jul-13 04:34N 31°04' E 122°40'0 0.9
2017-Jul-13 04:30N 31°04' E 122°40'3 5.3
2017-Jul-13 04:00N 31°05' E 122°43'1412.2
2017-Jul-13 02:50N 30°60' E 122°59'  
2017-Jul-10 22:22N 24°04' E 118°36'1014.0
2017-Jul-10 21:40N 23°58' E 118°27'214.1
2017-Jul-10 21:29N 23°57' E 118°25'  

Dump ship's entire track history